createdAt,value
2023-02-23T00:02:19.914Z,15.63
2023-02-23T00:04:48.250Z,15.40
2023-02-23T00:07:19.943Z,16.00
2023-02-23T00:09:48.529Z,16.10
2023-02-23T00:12:17.215Z,16.27
2023-02-23T00:14:46.150Z,15.30
2023-02-23T00:17:17.654Z,15.97
2023-02-23T00:19:49.317Z,15.80
2023-02-23T00:22:19.453Z,16.03
2023-02-23T00:24:48.209Z,15.20
2023-02-23T00:27:20.952Z,15.47
2023-02-23T00:29:51.016Z,14.73
2023-02-23T00:32:21.472Z,15.23
2023-02-23T00:34:50.682Z,14.97
2023-02-23T00:37:23.024Z,15.77
2023-02-23T00:39:52.120Z,15.20
2023-02-23T00:42:20.491Z,15.13
2023-02-23T00:44:49.425Z,15.07
2023-02-23T00:47:17.925Z,15.67
2023-02-23T00:49:46.758Z,15.03
2023-02-23T00:52:15.678Z,14.83
2023-02-23T00:54:45.714Z,15.33
2023-02-23T00:57:14.113Z,15.80
2023-02-23T00:59:42.591Z,15.13
2023-02-23T01:02:11.061Z,15.70
2023-02-23T01:04:39.472Z,15.47
2023-02-23T01:07:12.972Z,16.07
2023-02-23T01:09:42.175Z,16.37
2023-02-23T01:12:11.996Z,15.13
2023-02-23T01:14:40.585Z,14.63
2023-02-23T01:17:09.105Z,15.27
2023-02-23T01:19:37.523Z,15.87
2023-02-23T01:22:05.997Z,15.53
2023-02-23T01:24:34.410Z,15.63
2023-02-23T01:27:02.803Z,16.33
2023-02-23T01:29:32.728Z,15.73
2023-02-23T01:32:04.208Z,15.43
2023-02-23T01:34:33.201Z,15.63
2023-02-23T01:37:01.704Z,16.13
2023-02-23T01:39:30.224Z,15.67
2023-02-23T01:41:58.658Z,16.10
2023-02-23T01:45:19.664Z,15.13
2023-02-23T01:47:48.278Z,14.87
2023-02-23T01:50:17.934Z,15.73
2023-02-23T01:52:48.198Z,15.87
2023-02-23T01:55:23.822Z,16.63
2023-02-23T01:57:59.529Z,16.30
2023-02-23T02:00:31.968Z,16.67
2023-02-23T02:03:02.648Z,16.47
2023-02-23T02:05:31.730Z,16.30
2023-02-23T02:08:01.443Z,16.30
2023-02-23T02:10:45.883Z,17.33
2023-02-23T02:13:22.324Z,16.60
2023-02-23T02:16:23.107Z,16.67
2023-02-23T02:19:33.709Z,16.10
2023-02-23T02:23:00.186Z,15.90
2023-02-23T02:25:56.219Z,16.77
2023-02-23T02:29:11.422Z,16.27
2023-02-23T02:32:32.614Z,15.00
2023-02-23T02:36:10.866Z,15.93
2023-02-23T02:38:54.082Z,14.73
2023-02-23T02:41:37.534Z,15.73
2023-02-23T02:44:16.514Z,16.97
2023-02-23T02:46:51.321Z,16.27
2023-02-23T02:49:27.970Z,16.50
2023-02-23T02:52:02.768Z,16.87
2023-02-23T02:54:36.843Z,16.83
2023-02-23T02:57:07.450Z,17.20
2023-02-23T03:00:04.459Z,17.33
2023-02-23T03:02:53.268Z,16.40
2023-02-23T03:05:44.160Z,16.60
2023-02-23T03:08:40.340Z,16.30
2023-02-23T03:11:30.968Z,17.13
2023-02-23T03:14:34.564Z,16.17
2023-02-23T03:17:29.598Z,16.37
2023-02-23T03:20:23.519Z,16.53
2023-02-23T03:23:16.190Z,17.03
2023-02-23T03:26:10.872Z,15.83
2023-02-23T03:29:08.403Z,16.80
2023-02-23T03:32:01.524Z,16.40
2023-02-23T03:34:55.798Z,16.00
2023-02-23T03:37:47.203Z,16.87
2023-02-23T03:40:38.073Z,17.57
2023-02-23T03:43:29.869Z,15.80
2023-02-23T03:46:20.591Z,16.47
2023-02-23T03:49:09.574Z,17.03
2023-02-23T03:51:58.980Z,16.43
2023-02-23T03:54:52.461Z,16.57
2023-02-23T03:57:41.534Z,16.47
2023-02-23T04:00:34.441Z,15.97
2023-02-23T04:03:24.304Z,15.60
2023-02-23T04:06:13.547Z,16.60
2023-02-23T04:09:00.232Z,15.97
2023-02-23T04:11:56.082Z,15.93
2023-02-23T04:14:29.697Z,15.00
2023-02-23T04:16:57.708Z,16.57
2023-02-23T04:19:29.937Z,16.10
2023-02-23T04:21:58.242Z,16.90
2023-02-23T04:24:26.722Z,16.27
2023-02-23T04:26:55.202Z,15.77
2023-02-23T04:29:24.208Z,16.17
2023-02-23T04:31:54.108Z,15.83
2023-02-23T04:34:22.680Z,16.27
2023-02-23T04:36:52.404Z,15.90
2023-02-23T04:39:20.933Z,16.20
2023-02-23T04:41:50.529Z,15.87
2023-02-23T04:44:19.275Z,15.63
2023-02-23T04:46:47.835Z,14.90
2023-02-23T04:49:16.599Z,15.57
2023-02-23T04:51:45.170Z,15.50
2023-02-23T04:54:15.217Z,15.97
2023-02-23T04:56:44.168Z,15.30
2023-02-23T04:59:13.423Z,15.23
2023-02-23T05:01:42.265Z,15.30
2023-02-23T05:04:11.097Z,14.83
2023-02-23T05:06:39.862Z,15.93
2023-02-23T05:09:08.554Z,15.07
2023-02-23T05:11:38.846Z,15.10
2023-02-23T05:14:07.526Z,15.20
2023-02-23T05:16:36.307Z,15.00
2023-02-23T05:19:04.990Z,14.73
2023-02-23T05:21:33.648Z,15.20
2023-02-23T05:24:02.278Z,14.87
2023-02-23T05:26:31.375Z,15.30
2023-02-23T05:29:01.937Z,14.57
2023-02-23T05:31:30.728Z,15.03
2023-02-23T05:33:59.507Z,14.57
2023-02-23T05:36:28.379Z,14.17
2023-02-23T05:38:56.819Z,15.23
2023-02-23T05:41:25.556Z,14.27
2023-02-23T05:43:55.737Z,14.60
2023-02-23T05:46:27.810Z,14.23
2023-02-23T05:49:00.930Z,14.17
2023-02-23T05:51:31.549Z,14.10
2023-02-23T05:54:00.379Z,14.33
2023-02-23T05:56:29.521Z,12.97
2023-02-23T05:59:00.095Z,13.40
2023-02-23T06:01:30.595Z,13.50
2023-02-23T06:03:59.369Z,13.03
2023-02-23T06:06:28.681Z,12.93
2023-02-23T06:08:57.713Z,12.60
2023-02-23T06:11:26.613Z,13.40
2023-02-23T06:13:55.561Z,12.97
2023-02-23T06:16:24.410Z,13.10
2023-02-23T06:18:54.684Z,12.87
2023-02-23T06:21:25.223Z,13.17
2023-02-23T06:23:54.674Z,13.03
2023-02-23T06:26:23.306Z,12.27
2023-02-23T06:28:51.858Z,12.90
2023-02-23T06:31:20.843Z,12.27
2023-02-23T06:33:49.642Z,12.30
2023-02-23T06:36:19.970Z,12.67
2023-02-23T06:38:48.478Z,12.40
2023-02-23T06:41:18.128Z,12.13
